Time;durP1;ratioP1;P1;durP2;ratioP2;P2;SDS_P1;SDS_P2;PMS_P1;PMS_P2;Temp;Humidity;BMP_temperature;BMP_pressure;BME280_temperature;BME280_humidity;BME280_pressure;Samples;Min_cycle;Max_cycle;Signal;HPM_P1;HPM_P2
2022/07/14 00:00:10;;;;;;;3.53;2.67;;;;;;;17.22;54.79;95381.09;5115203;28;20176;-68
2022/07/14 00:02:36;;;;;;;4.82;2.20;;;;;;;17.24;55.07;95369.56;5115389;28;20363;-68
2022/07/14 00:05:06;;;;;;;4.97;2.83;;;;;;;17.19;55.14;95372.72;5114376;28;20203;-68
2022/07/14 00:07:33;;;;;;;4.55;2.70;;;;;;;17.14;55.57;95381.41;5114353;28;20584;-68
2022/07/14 00:10:00;;;;;;;5.53;2.70;;;;;;;17.10;55.48;95375.81;5115357;28;20203;-68
2022/07/14 00:12:27;;;;;;;4.13;3.00;;;;;;;17.08;55.55;95378.22;5116741;28;20191;-68
2022/07/14 00:14:53;;;;;;;5.10;3.10;;;;;;;17.08;55.55;95381.78;5119303;28;20256;-68
2022/07/14 00:17:20;;;;;;;3.47;2.28;;;;;;;17.07;55.43;95376.63;5118234;28;20196;-68
2022/07/14 00:19:47;;;;;;;3.83;2.80;;;;;;;17.03;56.04;95387.75;5117936;28;20190;-68
2022/07/14 00:22:15;;;;;;;4.57;2.60;;;;;;;17.02;55.80;95386.13;5118238;28;20230;-68
2022/07/14 00:24:42;;;;;;;3.42;2.20;;;;;;;17.02;55.99;95385.31;5119040;28;20241;-68
2022/07/14 00:27:08;;;;;;;3.08;2.50;;;;;;;16.97;56.07;95380.91;5118935;28;20211;-68
2022/07/14 00:29:35;;;;;;;3.97;2.70;;;;;;;16.95;55.92;95388.06;5118603;28;20500;-68
2022/07/14 00:32:02;;;;;;;3.60;2.80;;;;;;;16.95;56.26;95390.84;5117908;28;20187;-68
2022/07/14 00:34:29;;;;;;;3.30;2.47;;;;;;;16.97;56.55;95385.69;5117562;28;20195;-68
2022/07/14 00:36:56;;;;;;;4.78;2.70;;;;;;;16.99;56.41;95384.13;5118713;28;20192;-68
2022/07/14 00:39:24;;;;;;;5.30;2.97;;;;;;;17.03;56.75;95386.91;5119011;28;20183;-68
2022/07/14 00:41:51;;;;;;;4.85;2.55;;;;;;;17.04;56.71;95378.19;5118627;28;20212;-68
2022/07/14 00:44:18;;;;;;;6.90;2.47;;;;;;;16.99;56.37;95380.53;5118411;28;20530;-68
2022/07/14 00:46:44;;;;;;;3.08;2.78;;;;;;;16.98;56.99;95381.72;5117891;28;20195;-68
2022/07/14 00:49:11;;;;;;;5.22;2.72;;;;;;;16.91;56.43;95379.66;5117726;28;20538;-68
2022/07/14 00:51:38;;;;;;;5.00;2.92;;;;;;;16.87;57.27;95376.06;5117599;28;20211;-68
2022/07/14 00:54:05;;;;;;;4.75;2.70;;;;;;;16.83;57.33;95383.59;5118068;28;20248;-68
2022/07/14 00:56:33;;;;;;;5.45;2.72;;;;;;;16.82;57.42;95371.66;5118512;28;20194;-68
2022/07/14 00:58:59;;;;;;;5.35;2.70;;;;;;;16.84;57.34;95383.19;5117675;28;20199;-68
2022/07/14 01:01:26;;;;;;;2.10;1.85;;;;;;;16.86;56.67;95382.03;5118020;28;20225;-68
2022/07/14 01:03:53;;;;;;;4.10;2.92;;;;;;;16.81;57.59;95372.03;5118396;28;20199;-68
2022/07/14 01:06:19;;;;;;;4.65;3.08;;;;;;;16.75;57.39;95377.16;5117587;28;20192;-68
2022/07/14 01:08:46;;;;;;;3.55;2.60;;;;;;;16.70;57.34;95371.09;5117237;28;20195;-68
2022/07/14 01:11:13;;;;;;;5.57;2.60;;;;;;;16.66;57.23;95373.88;5099823;28;20256;-68
2022/07/14 01:13:42;;;;;;;5.55;3.00;;;;;;;16.57;56.74;95371.41;5116803;28;20200;-68
2022/07/14 01:16:09;;;;;;;8.80;2.83;;;;;;;16.52;57.39;95368.16;5116845;28;20202;-68
2022/07/14 01:18:36;;;;;;;5.80;3.20;;;;;;;16.49;57.08;95375.31;5117709;28;20187;-68
2022/07/14 01:21:05;;;;;;;3.42;2.70;;;;;;;16.51;57.32;95372.94;5117521;28;20283;-68
2022/07/14 01:23:33;;;;;;;4.35;2.65;;;;;;;16.52;57.29;95366.22;5115683;28;20196;-68
2022/07/14 01:25:59;;;;;;;5.43;2.80;;;;;;;16.49;57.06;95361.41;5117545;27;20620;-68
2022/07/14 01:28:26;;;;;;;5.65;2.95;;;;;;;16.46;57.83;95364.16;5116875;28;20192;-68
2022/07/14 01:30:53;;;;;;;5.03;3.10;;;;;;;16.46;57.91;95366.94;5117695;28;20192;-68
2022/07/14 01:33:20;;;;;;;8.30;4.05;;;;;;;16.41;57.71;95362.50;5116741;28;20196;-68
2022/07/14 01:35:46;;;;;;;6.68;3.80;;;;;;;16.38;58.13;95360.50;5117607;28;20195;-68
2022/07/14 01:38:13;;;;;;;5.95;3.50;;;;;;;16.30;58.01;95370.78;5117598;28;20180;-68
2022/07/14 01:40:41;;;;;;;7.40;3.88;;;;;;;16.25;58.08;95364.75;5117269;28;20188;-68
2022/07/14 01:43:08;;;;;;;8.30;3.78;;;;;;;16.21;58.45;95363.91;5117356;28;20218;-68
2022/07/14 01:45:35;;;;;;;7.03;3.72;;;;;;;16.22;57.50;95357.16;5116710;28;20195;-68
2022/07/14 01:48:02;;;;;;;8.13;3.83;;;;;;;16.24;58.16;95354.81;5117359;28;20191;-68
2022/07/14 01:50:28;;;;;;;8.20;4.20;;;;;;;16.23;58.10;95353.19;5117053;28;20555;-68
2022/07/14 01:52:55;;;;;;;4.93;3.10;;;;;;;16.24;58.20;95344.47;5115792;28;20667;-68
2022/07/14 01:55:22;;;;;;;3.63;2.60;;;;;;;16.25;58.15;95353.59;5117240;28;20184;-68
2022/07/14 01:57:51;;;;;;;8.07;3.92;;;;;;;16.21;58.91;95352.78;5115942;28;20630;-68
2022/07/14 02:00:18;;;;;;;6.75;4.00;;;;;;;16.16;58.79;95356.72;5116847;28;20589;-68
2022/07/14 02:02:45;;;;;;;6.90;4.32;;;;;;;16.08;58.33;95358.59;5116073;28;20282;-68
2022/07/14 02:05:12;;;;;;;5.30;3.78;;;;;;;16.03;59.25;95358.16;5116838;28;20262;-68
2022/07/14 02:07:39;;;;;;;7.65;3.53;;;;;;;15.95;58.92;95356.47;5116305;28;20191;-68
2022/07/14 02:12:52;;;;;;;3.08;2.80;;;;;;;15.80;58.83;95361.88;5116035;28;20187;-68
2022/07/14 02:15:19;;;;;;;3.35;2.50;;;;;;;15.82;58.69;95355.94;5117049;28;20184;-68
2022/07/14 02:17:45;;;;;;;7.22;3.88;;;;;;;15.76;59.11;95366.59;5115626;28;20614;-68
2022/07/14 02:20:13;;;;;;;5.82;4.20;;;;;;;15.77;59.27;95364.63;5116114;28;20192;-68
2022/07/14 02:22:40;;;;;;;8.60;5.38;;;;;;;15.74;59.22;95360.59;5116651;28;20227;-68
2022/07/14 02:25:08;;;;;;;10.52;5.88;;;;;;;15.74;59.79;95370.94;5115607;28;20680;-68
2022/07/14 02:27:34;;;;;;;16.48;8.50;;;;;;;15.69;59.07;95366.53;5116608;28;20192;-68
2022/07/14 02:30:03;;;;;;;14.57;8.48;;;;;;;15.69;59.62;95368.50;5116417;28;20205;-68
2022/07/14 02:32:31;;;;;;;12.57;7.75;;;;;;;15.70;59.69;95370.91;5116188;28;20188;-68
2022/07/14 02:34:57;;;;;;;23.90;9.90;;;;;;;15.70;59.50;95373.69;5116010;28;20198;-68
2022/07/14 02:37:25;;;;;;;40.42;19.38;;;;;;;15.66;60.05;95378.41;5116456;28;20188;-68
2022/07/14 02:39:52;;;;;;;33.60;16.60;;;;;;;15.66;60.45;95370.06;5099031;28;20208;-68
2022/07/14 02:42:19;;;;;;;25.10;14.18;;;;;;;15.62;60.14;95369.97;5116021;28;20251;-68
2022/07/14 02:44:46;;;;;;;20.60;11.55;;;;;;;15.55;59.77;95369.09;5116017;28;20188;-68
2022/07/14 02:47:14;;;;;;;16.50;8.27;;;;;;;15.48;60.52;95372.56;5115397;28;20610;-68
2022/07/14 02:49:41;;;;;;;17.20;8.55;;;;;;;15.41;60.61;95380.81;5115067;28;20195;-68
2022/07/14 02:52:08;;;;;;;17.15;10.73;;;;;;;15.35;60.23;95373.97;5114881;28;20200;-68
2022/07/14 02:54:35;;;;;;;21.05;11.77;;;;;;;15.33;60.27;95379.91;5115089;28;20206;-68
2022/07/14 02:57:01;;;;;;;20.90;12.35;;;;;;;15.38;60.34;95378.78;5115807;28;20188;-68
2022/07/14 02:59:28;;;;;;;21.30;12.30;;;;;;;15.38;60.57;95373.22;5115874;28;20612;-68
2022/07/14 03:01:55;;;;;;;18.42;10.80;;;;;;;15.42;60.64;95382.41;5115172;28;20280;-68
2022/07/14 03:04:23;;;;;;;23.70;11.30;;;;;;;15.43;60.54;95377.66;5115979;28;20183;-68
2022/07/14 03:06:50;;;;;;;23.33;12.57;;;;;;;15.37;60.86;95388.31;5115633;28;20180;-68
2022/07/14 03:09:17;;;;;;;14.95;10.18;;;;;;;15.33;60.72;95382.69;5115934;28;20184;-68
2022/07/14 03:11:44;;;;;;;13.38;7.80;;;;;;;15.25;60.71;95382.97;5114804;28;20196;-68
2022/07/14 03:14:10;;;;;;;9.88;5.97;;;;;;;15.16;60.79;95388.78;5116076;28;20183;-68
2022/07/14 03:16:37;;;;;;;18.98;9.18;;;;;;;15.08;61.28;95384.31;5115048;28;20192;-68
2022/07/14 03:19:04;;;;;;;19.85;9.63;;;;;;;15.02;61.64;95396.91;5114827;28;20192;-68
2022/07/14 03:21:32;;;;;;;21.55;9.77;;;;;;;15.03;61.99;95388.22;5114921;28;20236;-68
2022/07/14 03:23:59;;;;;;;17.38;7.70;;;;;;;15.09;61.48;95405.34;5115823;28;20207;-68
2022/07/14 03:26:28;;;;;;;17.02;8.73;;;;;;;15.10;61.25;95398.63;5114566;28;20207;-68
2022/07/14 03:28:55;;;;;;;15.07;9.10;;;;;;;15.07;61.68;95405.75;5114401;28;20682;-68
2022/07/14 03:31:21;;;;;;;16.15;8.70;;;;;;;15.07;61.78;95400.19;5115403;28;20196;-68
2022/07/14 03:33:48;;;;;;;17.35;8.88;;;;;;;15.06;60.92;95411.66;5115544;28;20607;-68
2022/07/14 03:36:15;;;;;;;25.92;13.77;;;;;;;15.04;61.14;95414.03;5115680;28;20184;-68
2022/07/14 03:38:43;;;;;;;32.55;19.45;;;;;;;15.05;60.56;95412.84;5115635;28;20188;-68
2022/07/14 03:41:10;;;;;;;34.60;22.75;;;;;;;15.10;61.19;95420.84;5115563;28;20191;-68
2022/07/14 03:43:36;;;;;;;37.42;23.90;;;;;;;15.14;61.37;95418.91;5115526;28;20272;-68
2022/07/14 03:46:03;;;;;;;33.47;21.15;;;;;;;15.10;60.78;95426.41;5115790;28;20191;-68
2022/07/14 03:48:30;;;;;;;20.88;15.13;;;;;;;15.11;60.77;95419.69;5119508;28;20172;-68
2022/07/14 03:50:57;;;;;;;20.75;13.15;;;;;;;15.09;60.82;95422.81;5119314;28;20187;-68
2022/07/14 03:53:24;;;;;;;14.40;10.00;;;;;;;15.07;60.89;95427.97;5118189;28;20227;-68
2022/07/14 03:55:52;;;;;;;10.90;8.27;;;;;;;15.07;61.03;95421.59;5119428;28;20191;-68
2022/07/14 03:58:19;;;;;;;15.07;7.00;;;;;;;15.06;60.90;95420.00;5119216;28;20545;-68
2022/07/14 04:00:46;;;;;;;11.00;5.40;;;;;;;15.08;60.76;95423.22;5119472;28;20206;-68
2022/07/14 04:03:12;;;;;;;7.45;4.65;;;;;;;15.07;60.78;95416.84;5119336;28;20215;-68
2022/07/14 04:05:39;;;;;;;6.78;4.47;;;;;;;15.08;60.91;95421.22;5119072;28;20576;-68
2022/07/14 04:08:06;;;;;;;6.30;4.20;;;;;;;15.09;60.89;95424.81;5118159;28;20211;-68
2022/07/14 04:10:33;;;;;;;4.88;3.70;;;;;;;15.09;60.44;95422.81;5119265;28;20312;-68
2022/07/14 04:13:01;;;;;;;5.65;3.60;;;;;;;15.10;60.52;95421.63;5118204;28;20195;-68
2022/07/14 04:15:29;;;;;;;6.13;3.90;;;;;;;15.13;61.40;95429.22;5118027;28;20207;-68
2022/07/14 04:17:55;;;;;;;10.85;5.60;;;;;;;15.17;61.13;95427.31;5118841;28;20680;-68
2022/07/14 04:20:23;;;;;;;7.93;4.25;;;;;;;15.24;61.63;95432.19;5119128;28;20188;-68
2022/07/14 04:22:49;;;;;;;6.38;4.38;;;;;;;15.28;61.74;95427.47;5118884;28;20590;-68
2022/07/14 04:25:16;;;;;;;9.43;5.32;;;;;;;15.33;61.32;95429.16;5119076;28;20184;-68
2022/07/14 04:27:43;;;;;;;11.63;6.82;;;;;;;15.33;61.41;95429.16;5118447;28;20269;-68
2022/07/14 04:30:13;;;;;;;10.77;4.45;;;;;;;15.35;60.37;95446.22;5118015;28;20606;-68
2022/07/14 04:32:40;;;;;;;12.73;8.65;;;;;;;15.38;60.44;95439.94;5118879;28;20192;-68
2022/07/14 04:35:07;;;;;;;15.00;9.60;;;;;;;15.40;60.69;95438.38;5118761;28;20184;-68
2022/07/14 04:37:34;;;;;;;9.25;5.20;;;;;;;15.41;60.27;95436.41;5117470;28;20510;-68
2022/07/14 04:40:02;;;;;;;6.80;4.28;;;;;;;15.40;60.05;95445.94;5118741;28;20188;-68
2022/07/14 04:42:29;;;;;;;6.25;5.70;;;;;;;15.42;59.98;95446.34;5118329;28;20666;-68
2022/07/14 04:44:56;;;;;;;4.97;4.10;;;;;;;15.44;59.65;95443.19;5117638;28;20274;-68
2022/07/14 04:47:24;;;;;;;7.68;4.35;;;;;;;15.48;60.27;95453.19;5117625;28;20200;-68
2022/07/14 04:52:35;;;;;;;8.90;5.07;;;;;;;15.59;60.69;95456.13;5118148;28;20223;-68
2022/07/14 04:55:02;;;;;;;7.80;4.90;;;;;;;15.61;60.55;95443.44;5117087;28;20210;-68
2022/07/14 04:57:28;;;;;;;6.97;4.10;;;;;;;15.63;60.30;95452.19;5118402;28;20198;-68
2022/07/14 04:59:55;;;;;;;6.13;4.32;;;;;;;15.69;59.98;95449.94;5118114;28;20213;-68
2022/07/14 05:02:24;;;;;;;6.13;4.07;;;;;;;15.72;59.92;95451.94;5117430;28;20196;-68
2022/07/14 05:04:51;;;;;;;5.25;4.13;;;;;;;15.76;59.74;95454.78;5118251;28;20219;-68
2022/07/14 05:07:17;;;;;;;5.10;4.25;;;;;;;15.82;60.42;95454.06;5118144;28;20244;-68
2022/07/14 05:09:44;;;;;;;7.00;4.78;;;;;;;15.86;60.68;95454.13;5117432;28;20200;-68
2022/07/14 05:12:13;;;;;;;7.15;5.32;;;;;;;15.88;61.05;95449.78;5117146;28;20203;-68
2022/07/14 05:14:40;;;;;;;8.75;6.40;;;;;;;15.93;60.83;95457.00;5117135;28;20199;-68
2022/07/14 05:17:07;;;;;;;12.93;7.20;;;;;;;15.99;60.78;95454.69;5117024;28;20203;-68
2022/07/14 05:19:35;;;;;;;12.05;7.75;;;;;;;16.04;59.96;95449.56;5117592;28;20603;-68
2022/07/14 05:22:02;;;;;;;13.95;8.05;;;;;;;16.09;60.34;95451.25;5116650;28;20260;-68
2022/07/14 05:24:29;;;;;;;14.90;7.93;;;;;;;16.12;60.63;95442.09;5117160;28;20521;-68
2022/07/14 05:26:58;;;;;;;11.90;8.07;;;;;;;16.17;60.26;95449.34;5116976;28;20184;-68
2022/07/14 05:29:25;;;;;;;11.85;8.45;;;;;;;16.20;60.56;95443.81;5117500;28;20592;-68
2022/07/14 05:31:52;;;;;;;9.95;7.20;;;;;;;16.26;60.09;95447.84;5117647;28;20195;-68
2022/07/14 05:34:19;;;;;;;10.38;7.22;;;;;;;16.31;59.35;95443.94;5116738;28;20196;-68
2022/07/14 05:36:47;;;;;;;14.18;7.20;;;;;;;16.37;59.77;95447.97;5117620;28;20196;-68
2022/07/14 05:39:14;;;;;;;9.88;6.03;;;;;;;16.41;59.94;95448.78;5116621;28;20276;-68
2022/07/14 05:41:41;;;;;;;9.95;5.93;;;;;;;16.44;59.66;95461.16;5117754;28;20192;-68
2022/07/14 05:44:08;;;;;;;11.15;6.65;;;;;;;16.49;59.46;95455.28;5116434;28;20204;-68
2022/07/14 05:46:34;;;;;;;9.93;6.30;;;;;;;16.55;59.73;95451.72;5117510;28;20596;-68
2022/07/14 05:49:01;;;;;;;11.70;7.35;;;;;;;16.60;59.15;95445.84;5116503;28;20203;-68
2022/07/14 05:51:28;;;;;;;10.77;7.05;;;;;;;16.67;58.98;95442.31;5117420;28;20184;-68
2022/07/14 05:53:56;;;;;;;8.80;7.07;;;;;;;16.73;58.88;95443.56;5115971;28;20226;-68
2022/07/14 05:56:23;;;;;;;11.65;8.10;;;;;;;16.78;58.63;95437.69;5116956;28;20195;-68
2022/07/14 05:58:49;;;;;;;11.57;8.38;;;;;;;16.85;58.11;95448.09;5116247;28;20249;-68
2022/07/14 06:01:18;;;;;;;12.05;9.00;;;;;;;16.91;57.92;95435.41;5117175;28;20264;-68
2022/07/14 06:03:48;;;;;;;11.70;7.80;;;;;;;16.99;58.21;95436.25;5116481;28;20223;-68
2022/07/14 06:06:15;;;;;;;15.68;8.18;;;;;;;17.03;57.82;95435.13;5117064;28;20216;-68
2022/07/14 06:08:41;;;;;;;9.73;6.05;;;;;;;17.09;57.64;95433.56;5116838;28;20196;-68
2022/07/14 06:11:10;;;;;;;12.40;6.55;;;;;;;17.17;57.69;95430.81;5115818;28;20516;-68
2022/07/14 06:13:39;;;;;;;9.15;6.00;;;;;;;17.23;56.83;95423.72;5116383;28;20256;-68
2022/07/14 06:16:05;;;;;;;9.57;6.53;;;;;;;17.29;56.88;95430.53;5116995;28;20194;-68
2022/07/14 06:18:32;;;;;;;10.65;6.22;;;;;;;17.35;56.48;95422.59;5116047;28;20204;-68
2022/07/14 06:20:59;;;;;;;6.15;4.75;;;;;;;17.39;56.14;95417.84;5116650;28;20175;-68
2022/07/14 06:23:26;;;;;;;4.75;3.80;;;;;;;17.45;55.60;95421.88;5115736;28;20223;-68
2022/07/14 06:25:52;;;;;;;5.75;3.95;;;;;;;17.50;55.12;95415.91;5115917;28;20244;-68
2022/07/14 06:28:21;;;;;;;4.93;3.35;;;;;;;17.54;55.08;95414.75;5116624;28;20188;-68
2022/07/14 06:30:47;;;;;;;4.53;3.28;;;;;;;17.58;54.87;95411.19;5116221;28;20191;-68
2022/07/14 06:33:14;;;;;;;3.42;2.60;;;;;;;17.62;55.15;95417.59;5116495;28;20190;-68
2022/07/14 06:35:42;;;;;;;2.60;2.40;;;;;;;17.65;54.79;95420.41;5116152;28;20612;-68
2022/07/14 06:38:09;;;;;;;3.58;2.58;;;;;;;17.71;54.18;95423.59;5115300;28;20179;-68
2022/07/14 06:40:39;;;;;;;2.85;2.58;;;;;;;17.79;54.20;95416.88;5116452;28;20184;-68
2022/07/14 06:43:05;;;;;;;3.92;2.10;;;;;;;17.84;54.25;95418.53;5115942;28;20216;-68
2022/07/14 06:45:34;;;;;;;2.72;2.15;;;;;;;17.87;53.97;95421.34;5116074;28;20612;-68
2022/07/14 06:48:01;;;;;;;3.58;2.30;;;;;;;17.91;53.96;95421.34;5116345;28;20657;-68
2022/07/14 06:50:27;;;;;;;4.13;1.85;;;;;;;17.96;53.52;95413.38;5115580;28;20206;-68
2022/07/14 06:52:54;;;;;;;3.45;2.83;;;;;;;18.01;53.39;95417.78;5114862;28;20234;-68
2022/07/14 06:55:21;;;;;;;4.10;3.17;;;;;;;18.04;53.41;95420.59;5115907;28;20639;-68
2022/07/14 06:57:48;;;;;;;4.18;3.63;;;;;;;18.10;52.77;95409.06;5114891;28;20196;-68
2022/07/14 07:00:16;;;;;;;3.72;3.25;;;;;;;18.13;52.87;95414.66;5116026;28;20188;-68
2022/07/14 07:02:44;;;;;;;5.30;4.80;;;;;;;18.19;52.82;95407.50;5115060;28;20615;-68
2022/07/14 07:07:59;;;;;;;5.18;3.08;;;;;;;18.27;53.02;95399.94;5115858;28;20172;-68
2022/07/14 07:10:26;;;;;;;2.60;2.40;;;;;;;18.30;53.07;95404.75;5115109;28;20203;-67
2022/07/14 07:12:53;;;;;;;5.35;2.40;;;;;;;18.34;52.63;95407.53;5115597;28;20252;-68
2022/07/14 07:15:19;;;;;;;2.42;2.00;;;;;;;18.35;52.22;95409.16;5115867;28;20221;-68
2022/07/14 07:17:48;;;;;;;2.60;2.40;;;;;;;18.39;51.98;95412.75;5115343;28;20192;-68
2022/07/14 07:20:15;;;;;;;3.42;2.10;;;;;;;18.44;51.29;95407.56;5114939;28;20195;-68
2022/07/14 07:22:42;;;;;;;1.80;1.70;;;;;;;18.50;51.67;95403.19;5115134;28;20206;-68
2022/07/14 07:25:09;;;;;;;2.60;2.40;;;;;;;18.55;51.73;95409.56;5114688;28;20524;-67
2022/07/14 07:27:36;;;;;;;2.50;2.30;;;;;;;18.57;52.03;95405.19;5115740;28;20253;-68
2022/07/14 07:30:04;;;;;;;4.32;2.72;;;;;;;18.61;52.41;95403.19;5114942;28;20200;-68
2022/07/14 07:32:31;;;;;;;3.47;2.38;;;;;;;18.66;52.99;95405.59;5114665;28;20710;-68
2022/07/14 07:35:00;;;;;;;2.58;1.98;;;;;;;18.72;52.71;95406.03;5115588;28;20183;-68
2022/07/14 07:37:27;;;;;;;3.65;2.00;;;;;;;18.74;51.96;95406.47;5115549;28;20481;-68
2022/07/14 07:39:54;;;;;;;3.25;2.22;;;;;;;18.78;51.89;95407.25;5115882;28;20180;-68
2022/07/14 07:42:21;;;;;;;3.05;2.38;;;;;;;18.84;52.48;95402.84;5114840;28;20206;-68
2022/07/14 07:44:49;;;;;;;1.90;1.80;;;;;;;18.90;52.50;95394.88;5114721;28;20215;-68
2022/07/14 07:47:16;;;;;;;2.42;1.98;;;;;;;18.95;52.56;95398.09;5115909;28;20190;-68
2022/07/14 07:49:43;;;;;;;3.33;2.00;;;;;;;19.01;52.02;95398.47;5115885;28;20184;-68
2022/07/14 07:52:11;;;;;;;2.60;2.30;;;;;;;19.05;52.47;95392.88;5115458;28;20249;-68
2022/07/14 07:54:38;;;;;;;2.40;2.20;;;;;;;19.12;52.02;95390.09;5115489;28;20199;-68
2022/07/14 07:57:05;;;;;;;4.00;2.00;;;;;;;19.18;51.39;95382.91;5114187;28;20207;-68
2022/07/14 07:59:32;;;;;;;4.22;2.38;;;;;;;19.26;50.16;95380.88;5114732;28;20200;-68
2022/07/14 08:01:59;;;;;;;1.92;1.67;;;;;;;19.33;50.70;95378.09;5115542;28;20184;-68
2022/07/14 08:04:25;;;;;;;3.25;2.05;;;;;;;19.39;50.93;95374.47;5114433;28;20227;-68
2022/07/14 08:06:52;;;;;;;3.35;2.15;;;;;;;19.48;50.83;95366.44;5114555;28;20210;-68
2022/07/14 08:12:05;;;;;;;1.98;1.75;;;;;;;19.58;49.00;95366.84;5115362;28;20165;-68
2022/07/14 08:14:50;;;;;;;3.38;1.90;;;;;;;19.61;48.91;95361.22;5114646;28;20216;-68
2022/07/14 08:17:17;;;;;;;3.92;2.28;;;;;;;19.67;48.27;95358.84;5115752;28;20608;-68
2022/07/14 08:19:43;;;;;;;2.13;1.92;;;;;;;19.72;47.89;95355.63;5115286;28;20184;-68
2022/07/14 08:22:10;;;;;;;2.65;1.85;;;;;;;19.77;46.70;95355.19;5115382;28;20264;-68
2022/07/14 08:24:39;;;;;;;2.50;2.17;;;;;;;19.81;46.90;95361.59;5114000;28;20219;-68
2022/07/14 08:27:05;;;;;;;2.50;2.22;;;;;;;19.86;48.31;95363.97;5115158;28;20198;-68
2022/07/14 08:29:32;;;;;;;2.03;1.83;;;;;;;19.94;49.48;95357.13;5114842;28;20208;-68
2022/07/14 08:31:59;;;;;;;1.65;1.55;;;;;;;20.06;47.79;95360.69;5115462;28;20195;-68
2022/07/14 08:34:26;;;;;;;2.60;1.90;;;;;;;20.12;47.02;95356.25;5118839;28;20183;-68
2022/07/14 08:36:52;;;;;;;2.25;1.92;;;;;;;20.17;46.31;95356.63;5118806;28;20192;-67
2022/07/14 08:39:19;;;;;;;1.70;1.60;;;;;;;20.26;49.24;95349.75;5118644;28;20202;-68
2022/07/14 08:41:48;;;;;;;3.53;2.40;;;;;;;20.32;46.19;95348.94;5118384;28;20192;-68
2022/07/14 08:44:15;;;;;;;1.83;1.70;;;;;;;20.52;47.23;95351.25;5117681;28;20246;-68
2022/07/14 08:46:41;;;;;;;1.73;1.55;;;;;;;20.65;46.91;95353.13;5117957;28;20192;-68
2022/07/14 08:49:09;;;;;;;1.95;1.80;;;;;;;20.79;45.54;95340.22;5118734;28;20186;-68
2022/07/14 08:51:38;;;;;;;2.75;1.65;;;;;;;20.83;45.82;95341.78;5118687;28;20211;-68
2022/07/14 08:54:05;;;;;;;1.85;1.65;;;;;;;21.01;47.01;95338.03;5117622;28;20228;-68
2022/07/14 08:56:32;;;;;;;2.22;1.80;;;;;;;21.09;47.86;95342.38;5117254;28;20204;-68
2022/07/14 08:59:00;;;;;;;4.95;2.75;;;;;;;21.13;46.25;95334.72;5118423;28;20187;-68
2022/07/14 09:01:27;;;;;;;5.20;2.05;;;;;;;21.22;46.17;95337.06;5117936;28;20214;-68
2022/07/14 09:03:54;;;;;;;3.28;2.17;;;;;;;21.31;45.47;95340.16;5117960;28;20204;-68
2022/07/14 09:06:46;;;;;;;3.42;2.10;;;;;;;21.30;44.65;95333.75;5117416;28;20744;-68
2022/07/14 09:09:16;;;;;;;2.30;2.10;;;;;;;21.41;44.08;95332.88;5118268;28;20227;-68
2022/07/14 09:11:50;;;;;;;3.65;1.73;;;;;;;21.52;43.50;95327.94;5117757;28;20231;-68
2022/07/14 09:14:19;;;;;;;3.25;1.60;;;;;;;21.64;41.47;95318.97;5118198;28;20200;-68
2022/07/14 09:16:46;;;;;;;1.90;1.55;;;;;;;21.73;41.20;95324.91;5118273;28;20612;-68
2022/07/14 09:19:15;;;;;;;3.33;1.70;;;;;;;21.77;44.44;95317.22;5119014;28;20191;-68
2022/07/14 09:21:45;;;;;;;1.73;1.63;;;;;;;21.90;40.90;95313.88;5118320;28;20184;-68
2022/07/14 09:24:14;;;;;;;2.72;2.03;;;;;;;22.02;41.85;95311.28;5118276;28;20268;-68
2022/07/14 09:26:44;;;;;;;3.15;1.80;;;;;;;22.15;40.34;95313.56;5117212;28;20200;-68
2022/07/14 09:29:19;;;;;;;2.25;1.98;;;;;;;22.34;41.34;95307.28;5117115;28;20192;-68
2022/07/14 09:31:46;;;;;;;1.80;1.65;;;;;;;22.61;40.94;95314.91;5117222;28;20207;-68
2022/07/14 09:34:26;;;;;;;2.50;1.98;;;;;;;22.83;39.84;95316.94;5117580;28;20627;-68
2022/07/14 09:36:53;;;;;;;2.55;1.77;;;;;;;22.85;41.07;95308.09;5116881;28;20211;-68
2022/07/14 09:39:20;;;;;;;2.42;1.70;;;;;;;22.97;39.85;95307.50;5117137;28;20539;-68
2022/07/14 09:41:53;;;;;;;2.80;1.95;;;;;;;23.09;39.95;95303.28;5116877;28;20202;-68
2022/07/14 09:44:22;;;;;;;2.58;2.13;;;;;;;23.23;40.55;95300.22;5115759;28;20212;-68
2022/07/14 09:46:51;;;;;;;3.50;1.92;;;;;;;23.31;39.93;95303.69;5116385;28;20757;-68
2022/07/14 09:49:19;;;;;;;2.38;1.60;;;;;;;23.34;39.31;95293.59;5116488;28;20203;-68
2022/07/14 09:51:57;;;;;;;1.80;1.70;;;;;;;23.30;42.82;95296.47;5116764;28;20203;-68
2022/07/14 09:54:45;;;;;;;2.20;2.00;;;;;;;23.37;40.08;95304.00;5116464;28;20188;-68
2022/07/14 09:57:26;;;;;;;3.45;1.90;;;;;;;23.54;41.63;95295.22;5116731;28;20199;-68
2022/07/14 09:59:57;;;;;;;2.20;2.00;;;;;;;23.67;40.13;95294.59;5116465;28;20541;-68
2022/07/14 10:02:26;;;;;;;2.08;1.88;;;;;;;23.65;41.40;95280.94;5116412;28;20623;-68
2022/07/14 10:04:55;;;;;;;2.15;1.73;;;;;;;23.66;40.98;95287.34;5116125;28;20224;-68
2022/07/14 10:07:24;;;;;;;3.03;1.88;;;;;;;23.66;41.96;95281.72;5117710;28;20225;-68
2022/07/14 10:09:56;;;;;;;1.80;1.70;;;;;;;23.79;39.47;95277.06;5118579;28;20191;-68
2022/07/14 10:12:25;;;;;;;2.90;1.95;;;;;;;23.78;40.36;95272.63;5117707;28;20176;-68
2022/07/14 10:14:53;;;;;;;3.30;1.70;;;;;;;23.85;38.89;95275.31;5117046;28;20195;-68
2022/07/14 10:17:22;;;;;;;4.57;1.90;;;;;;;23.92;38.85;95265.91;5117436;28;20188;-68
2022/07/14 10:19:49;;;;;;;1.92;1.73;;;;;;;23.97;40.12;95262.59;5116289;28;20202;-68
2022/07/14 10:22:16;;;;;;;2.35;1.90;;;;;;;24.05;41.17;95266.84;5117173;28;20191;-68
2022/07/14 10:24:44;;;;;;;2.15;1.83;;;;;;;24.17;39.85;95256.91;5115780;28;20231;-68
2022/07/14 10:27:12;;;;;;;2.25;2.05;;;;;;;24.16;39.77;95255.34;5116740;28;20176;-68
2022/07/14 10:29:40;;;;;;;3.78;2.13;;;;;;;24.23;38.79;95250.31;5116694;28;20184;-69
2022/07/14 10:32:16;;;;;;;3.08;2.05;;;;;;;24.25;40.44;95247.84;5115919;28;20199;-68
2022/07/14 10:34:51;;;;;;;5.65;2.03;;;;;;;24.42;39.55;95245.88;5117060;28;20187;-68
2022/07/14 10:37:23;;;;;;;5.32;2.53;;;;;;;24.51;37.84;95248.13;5116680;28;20184;-68
2022/07/14 10:39:58;;;;;;;2.78;2.03;;;;;;;24.59;38.13;95251.53;5117104;28;20195;-68
2022/07/14 10:42:29;;;;;;;3.65;2.15;;;;;;;24.56;40.46;95244.75;5117091;28;20191;-68
2022/07/14 10:44:56;;;;;;;5.45;2.00;;;;;;;24.67;37.16;95247.31;5116136;28;20281;-68
2022/07/14 10:47:25;;;;;;;2.10;1.90;;;;;;;24.72;36.70;95238.31;5116475;28;20544;-68
2022/07/14 10:50:06;;;;;;;2.45;1.98;;;;;;;24.71;37.91;95240.34;5116712;28;20194;-69
2022/07/14 10:52:35;;;;;;;4.15;2.10;;;;;;;24.77;36.66;95234.19;5116210;28;20262;-68
2022/07/14 10:55:33;;;;;;;2.30;1.90;;;;;;;24.78;38.12;95232.94;5116052;28;20195;-68
2022/07/14 10:58:31;;;;;;;3.00;1.90;;;;;;;24.78;38.18;95224.47;5104464;28;20249;-68
2022/07/14 11:00:59;;;;;;;2.95;1.92;;;;;;;24.83;37.98;95224.72;5115470;28;20200;-68
2022/07/14 11:03:28;;;;;;;4.05;1.98;;;;;;;24.97;38.37;95223.56;5117079;28;20194;-68
2022/07/14 11:06:23;;;;;;;2.30;2.05;;;;;;;25.01;37.93;95221.44;5115567;28;20212;-68
2022/07/14 11:09:38;;;;;;;2.15;1.85;;;;;;;25.05;38.48;95213.66;5079846;28;20279;-68
2022/07/14 11:12:15;;;;;;;2.65;1.80;;;;;;;25.15;36.95;95209.00;5036864;28;20268;-68
2022/07/14 11:14:43;;;;;;;1.80;1.70;;;;;;;25.11;35.31;95217.56;5113608;28;20231;-68
2022/07/14 11:17:37;;;;;;;1.85;1.70;;;;;;;25.13;37.21;95206.66;5115503;28;20206;-67
2022/07/14 11:20:06;;;;;;;4.13;2.20;;;;;;;25.28;36.91;95207.06;5114929;28;20238;-68
2022/07/14 11:22:34;;;;;;;2.55;1.90;;;;;;;25.29;36.50;95217.09;5115806;28;20179;-68
2022/07/14 11:25:03;;;;;;;2.42;1.77;;;;;;;25.34;35.26;95202.41;5115330;28;20226;-68
2022/07/14 11:27:38;;;;;;;2.25;2.05;;;;;;;25.31;34.38;95196.88;5115777;28;20199;-67
2022/07/14 11:30:20;;;;;;;1.90;1.80;;;;;;;25.36;35.21;95199.16;5115789;28;20191;-68
2022/07/14 11:32:47;;;;;;;4.10;1.65;;;;;;;25.35;35.38;95197.59;5114861;28;20195;-68
2022/07/14 11:38:01;;;;;;;4.20;2.00;;;;;;;25.38;37.27;95191.84;5116022;28;20179;-68
2022/07/14 11:40:43;;;;;;;2.05;1.85;;;;;;;25.42;38.26;95194.56;5114982;28;20191;-68
2022/07/14 11:43:40;;;;;;;2.17;1.80;;;;;;;25.44;36.77;95192.88;5115304;28;20188;-68
2022/07/14 11:46:08;;;;;;;1.90;1.80;;;;;;;25.55;35.66;95198.19;5036293;28;20232;-68
2022/07/14 11:48:36;;;;;;;2.38;1.90;;;;;;;25.59;36.98;95190.41;5096799;28;20197;-68
2022/07/14 11:51:04;;;;;;;2.00;1.90;;;;;;;25.54;35.42;95181.72;5115637;28;20196;-68